Time;durP1;ratioP1;P1;durP2;ratioP2;P2;SDS_P1;SDS_P2;PMS_P1;PMS_P2;Temp;Humidity;BMP_temperature;BMP_pressure;BME280_temperature;BME280_humidity;BME280_pressure;Samples;Min_cycle;Max_cycle;Signal;HPM_P1;HPM_P2
2022/07/06 00:00:58;;;;;;;22.77;13.95;;;;;;;21.06;66.88;99327.63;5092743;28;20135;-71
2022/07/06 00:03:25;;;;;;;21.15;14.18;;;;;;;21.11;66.63;99332.88;5092673;28;20048;-71
2022/07/06 00:05:52;;;;;;;23.00;14.32;;;;;;;21.10;66.75;99331.25;5092603;28;20388;-70
2022/07/06 00:08:19;;;;;;;22.60;14.38;;;;;;;21.08;66.73;99328.03;5074947;28;20056;-70
2022/07/06 00:10:46;;;;;;;21.50;14.55;;;;;;;21.06;66.80;99324.78;5092946;28;20052;-69
2022/07/06 00:13:13;;;;;;;24.00;14.35;;;;;;;21.05;66.73;99328.84;5092167;28;20056;-70
2022/07/06 00:15:40;;;;;;;18.30;13.80;;;;;;;21.07;66.82;99326.41;5092604;28;20075;-70
2022/07/06 00:18:07;;;;;;;23.02;14.73;;;;;;;21.05;66.75;99326.81;5074361;28;20162;-70
2022/07/06 00:20:34;;;;;;;20.52;15.07;;;;;;;21.06;66.72;99324.78;5092645;28;20051;-71
2022/07/06 00:23:01;;;;;;;21.90;14.50;;;;;;;21.06;66.65;99321.97;5092574;28;20388;-70
2022/07/06 00:25:28;;;;;;;19.35;12.90;;;;;;;21.03;66.51;99319.94;5092515;28;20052;-71
2022/07/06 00:27:55;;;;;;;19.80;13.35;;;;;;;21.03;66.52;99308.63;5085180;28;20123;-69
2022/07/06 00:30:22;;;;;;;24.30;14.63;;;;;;;21.05;66.76;99311.88;5072269;28;20147;-71
2022/07/06 00:32:48;;;;;;;24.77;14.55;;;;;;;21.04;66.48;99313.88;5072151;28;20053;-71
2022/07/06 00:35:16;;;;;;;19.13;13.98;;;;;;;21.07;66.21;99295.28;5073820;28;20553;-70
2022/07/06 00:37:43;;;;;;;21.90;13.98;;;;;;;21.04;66.44;99305.41;5076462;28;20106;-70
2022/07/06 00:40:10;;;;;;;25.10;13.82;;;;;;;21.03;66.30;99302.97;5095258;28;20051;-70
2022/07/06 00:42:45;;;;;;;21.73;13.68;;;;;;;20.99;66.48;99294.50;5096144;28;20122;-69
2022/07/06 00:45:14;;;;;;;22.25;14.57;;;;;;;20.99;66.65;99316.34;5096443;28;20058;-70
2022/07/06 00:47:42;;;;;;;21.83;14.07;;;;;;;20.99;66.80;99313.50;5096357;28;20077;-69
2022/07/06 00:50:13;;;;;;;24.90;14.27;;;;;;;21.01;66.61;99322.38;5095758;28;20130;-69
2022/07/06 00:52:42;;;;;;;24.92;16.05;;;;;;;21.01;66.63;99325.19;5096264;28;20531;-72
2022/07/06 00:55:10;;;;;;;22.17;15.00;;;;;;;20.99;66.50;99319.16;5095772;28;20054;-69
2022/07/06 00:57:40;;;;;;;19.35;14.20;;;;;;;21.02;66.52;99318.34;5077388;28;20044;-71
2022/07/06 01:00:10;;;;;;;21.45;15.57;;;;;;;21.03;66.55;99319.94;5095862;28;20052;-68
2022/07/06 01:02:37;;;;;;;22.15;14.20;;;;;;;21.00;66.72;99313.09;5095646;28;20052;-69
2022/07/06 01:05:05;;;;;;;20.92;14.63;;;;;;;21.01;66.75;99313.88;5096000;28;20081;-69
2022/07/06 01:07:36;;;;;;;20.42;14.18;;;;;;;20.99;66.69;99311.47;5095425;28;20048;-69
2022/07/06 01:10:07;;;;;;;18.83;13.88;;;;;;;21.02;66.61;99310.66;5095610;28;20050;-71
2022/07/06 01:12:35;;;;;;;23.05;13.95;;;;;;;21.03;66.68;99314.28;5095250;28;20155;-70
2022/07/06 01:15:05;;;;;;;18.20;14.20;;;;;;;21.02;66.71;99315.53;5095575;28;20058;-68
2022/07/06 01:17:33;;;;;;;26.05;14.75;;;;;;;20.99;67.01;99319.16;5085337;28;20468;-70
2022/07/06 01:20:13;;;;;;;23.58;14.77;;;;;;;20.99;66.81;99319.16;5075180;28;20507;-68
2022/07/06 01:22:41;;;;;;;22.05;14.65;;;;;;;20.93;67.11;99326.41;5075291;28;20144;-68
2022/07/06 01:25:08;;;;;;;23.77;15.13;;;;;;;20.91;67.34;99311.88;5075436;28;20078;-70
2022/07/06 01:27:38;;;;;;;20.13;15.00;;;;;;;20.91;67.52;99317.53;5078690;28;20487;-70
2022/07/06 01:30:11;;;;;;;20.38;15.43;;;;;;;20.89;67.63;99317.13;5095282;28;20055;-69
2022/07/06 01:32:39;;;;;;;22.52;14.63;;;;;;;20.88;67.62;99319.16;5095238;28;20082;-70
2022/07/06 01:35:09;;;;;;;22.70;14.80;;;;;;;20.92;67.45;99319.13;5077049;28;20486;-73
2022/07/06 01:37:36;;;;;;;19.42;14.65;;;;;;;20.91;67.74;99323.19;5076739;28;20079;-69
2022/07/06 01:40:06;;;;;;;19.77;14.00;;;;;;;20.92;67.67;99324.78;5095052;28;20438;-69
2022/07/06 01:42:34;;;;;;;21.88;15.25;;;;;;;20.91;67.64;99323.19;5094754;28;20078;-71
2022/07/06 01:45:02;;;;;;;22.60;14.85;;;;;;;20.94;67.74;99328.03;5095272;28;20447;-70
2022/07/06 01:47:30;;;;;;;21.20;14.73;;;;;;;20.94;67.62;99328.03;5094371;28;20044;-72
2022/07/06 01:50:03;;;;;;;21.23;14.25;;;;;;;20.96;67.59;99325.63;5076464;28;20093;-70
2022/07/06 01:52:30;;;;;;;21.85;14.57;;;;;;;20.97;67.71;99332.91;5094899;28;20056;-71
2022/07/06 01:54:57;;;;;;;25.35;15.13;;;;;;;20.93;67.62;99326.41;5094874;28;20048;-70
2022/07/06 01:57:24;;;;;;;20.23;14.40;;;;;;;20.93;67.75;99341.34;5094919;28;20493;-71
2022/07/06 01:59:51;;;;;;;21.48;14.52;;;;;;;20.94;67.67;99331.66;5094422;28;20048;-69
2022/07/06 02:02:18;;;;;;;21.48;14.70;;;;;;;20.91;67.52;99335.31;5094466;28;20059;-70
2022/07/06 02:04:45;;;;;;;23.58;15.15;;;;;;;20.97;67.38;99327.25;5094315;28;20475;-68
2022/07/06 02:07:12;;;;;;;21.13;14.40;;;;;;;21.04;67.49;99339.34;5081064;28;20044;-68
2022/07/06 02:09:39;;;;;;;27.30;14.77;;;;;;;21.04;67.18;99327.22;5074262;28;20139;-68
2022/07/06 02:12:06;;;;;;;21.77;14.20;;;;;;;21.13;67.07;99333.25;5073987;28;20065;-71
2022/07/06 02:14:33;;;;;;;23.35;15.20;;;;;;;21.24;67.08;99339.69;5074330;28;20048;-69
2022/07/06 02:17:00;;;;;;;22.85;15.07;;;;;;;21.36;66.75;99339.25;5079059;28;20548;-69
2022/07/06 02:19:27;;;;;;;22.08;14.52;;;;;;;21.41;66.45;99333.19;5094330;28;20048;-69
2022/07/06 02:21:54;;;;;;;21.52;14.38;;;;;;;21.50;66.37;99344.88;5094529;28;20048;-70
2022/07/06 02:24:21;;;;;;;22.17;14.57;;;;;;;21.55;66.30;99342.41;5093992;28;20529;-70
2022/07/06 02:26:48;;;;;;;20.75;14.45;;;;;;;21.58;66.22;99340.78;5094160;28;20052;-69
2022/07/06 02:29:15;;;;;;;21.52;14.65;;;;;;;21.59;65.84;99331.09;5094162;28;20457;-72
2022/07/06 02:31:42;;;;;;;22.08;13.75;;;;;;;21.60;65.38;99344.00;5094056;28;20127;-70
2022/07/06 02:34:08;;;;;;;23.42;14.95;;;;;;;21.61;65.14;99339.94;5093909;28;20078;-69
2022/07/06 02:36:35;;;;;;;20.40;13.90;;;;;;;21.63;64.90;99346.03;5093967;28;20512;-70
2022/07/06 02:39:02;;;;;;;20.95;13.57;;;;;;;21.64;64.82;99347.63;5093681;28;20064;-69
2022/07/06 02:41:29;;;;;;;20.30;14.38;;;;;;;21.63;64.90;99343.19;5093867;28;20525;-70
2022/07/06 02:43:56;;;;;;;22.90;14.43;;;;;;;21.60;64.96;99344.00;5093892;28;20056;-70
2022/07/06 02:46:23;;;;;;;19.48;13.32;;;;;;;21.59;64.90;99348.06;5093889;28;20048;-69
2022/07/06 02:48:50;;;;;;;25.83;14.45;;;;;;;21.57;64.96;99350.50;5075600;28;20052;-69
2022/07/06 02:51:17;;;;;;;19.73;15.35;;;;;;;21.61;64.96;99345.63;5075216;28;20048;-69
2022/07/06 02:53:44;;;;;;;23.30;14.25;;;;;;;21.66;65.13;99353.69;5093751;28;20044;-70
2022/07/06 02:56:14;;;;;;;23.08;14.88;;;;;;;21.69;64.94;99350.84;5093918;28;20075;-70
2022/07/06 02:58:40;;;;;;;25.63;14.70;;;;;;;21.72;64.77;99357.72;5092630;28;20136;-70
2022/07/06 03:01:07;;;;;;;20.88;14.48;;;;;;;21.77;64.59;99345.19;5078320;28;20472;-69
2022/07/06 03:03:34;;;;;;;20.30;14.75;;;;;;;21.81;64.43;99343.94;5055357;28;20135;-71
2022/07/06 03:06:01;;;;;;;21.58;15.18;;;;;;;21.84;64.33;99348.78;5076766;28;20052;-70
2022/07/06 03:08:35;;;;;;;24.40;14.80;;;;;;;21.84;64.04;99343.13;5093381;28;20397;-70
2022/07/06 03:11:03;;;;;;;23.40;15.57;;;;;;;21.82;63.63;99322.91;5093380;28;20048;-69
2022/07/06 03:13:34;;;;;;;23.75;16.08;;;;;;;21.90;63.56;99335.81;5075111;28;20062;-72
2022/07/06 03:16:01;;;;;;;25.33;14.40;;;;;;;21.93;63.69;99329.31;5074923;28;20086;-71
2022/07/06 03:18:28;;;;;;;27.75;16.10;;;;;;;21.98;63.35;99328.88;5093139;28;20044;-70
2022/07/06 03:20:56;;;;;;;26.02;15.13;;;;;;;22.03;63.24;99330.47;5093202;28;20499;-70
2022/07/06 03:23:23;;;;;;;22.63;14.48;;;;;;;22.10;63.02;99333.25;5092883;28;20082;-72
2022/07/06 03:25:50;;;;;;;28.60;14.88;;;;;;;22.18;62.77;99334.81;5093199;28;20062;-70
2022/07/06 03:28:17;;;;;;;19.83;14.23;;;;;;;22.25;62.75;99324.25;5084684;28;20143;-70
2022/07/06 03:30:45;;;;;;;22.10;15.00;;;;;;;22.31;62.43;99327.44;5073188;28;20117;-68
2022/07/06 03:33:11;;;;;;;20.02;13.93;;;;;;;22.38;62.37;99327.41;5054533;28;20048;-68
2022/07/06 03:35:38;;;;;;;23.13;14.07;;;;;;;22.47;61.96;99331.34;5072907;28;20422;-71
2022/07/06 03:38:05;;;;;;;25.98;14.25;;;;;;;22.54;61.89;99331.34;5056247;28;20519;-71
2022/07/06 03:40:33;;;;;;;23.30;13.13;;;;;;;22.62;61.51;99320.75;5092760;28;20052;-68
2022/07/06 03:43:00;;;;;;;21.80;13.63;;;;;;;22.70;61.17;99331.59;5092867;28;20105;-69
2022/07/06 03:45:27;;;;;;;19.95;13.90;;;;;;;22.85;60.78;99318.91;5092902;28;20437;-69
2022/07/06 03:47:54;;;;;;;21.30;13.23;;;;;;;23.01;60.24;99316.28;5092651;28;20052;-70
2022/07/06 03:50:21;;;;;;;20.48;13.82;;;;;;;23.24;59.76;99327.06;5074476;28;20548;-70
2022/07/06 03:52:48;;;;;;;28.45;14.18;;;;;;;23.34;59.53;99323.28;5092707;28;20058;-73
2022/07/06 03:55:15;;;;;;;21.02;13.82;;;;;;;23.36;59.34;99332.19;5092516;28;20527;-71
2022/07/06 03:57:41;;;;;;;18.52;13.27;;;;;;;23.31;59.48;99333.47;5092577;28;20068;-71
2022/07/06 04:00:09;;;;;;;23.13;13.32;;;;;;;23.27;59.58;99335.50;5074893;28;20506;-69
2022/07/06 04:02:36;;;;;;;21.77;12.73;;;;;;;23.29;59.42;99341.59;5092387;28;20090;-70
2022/07/06 04:05:04;;;;;;;19.83;13.13;;;;;;;23.30;59.39;99336.72;5092609;28;20449;-69
2022/07/06 04:07:31;;;;;;;20.65;12.82;;;;;;;23.31;59.63;99336.28;5092519;28;20453;-72
2022/07/06 04:09:57;;;;;;;16.65;12.63;;;;;;;23.42;59.51;99341.03;5092888;28;20048;-70
2022/07/06 04:12:24;;;;;;;21.98;13.95;;;;;;;23.51;59.27;99338.50;5096540;28;20048;-71
2022/07/06 04:14:52;;;;;;;78.18;42.65;;;;;;;23.61;58.73;99334.72;5096851;28;20060;-70
2022/07/06 04:20:05;;;;;;;24.33;13.45;;;;;;;23.83;58.08;99334.00;5076128;28;20055;-69
2022/07/06 04:22:32;;;;;;;21.17;13.85;;;;;;;23.93;57.83;99323.72;5076524;28;20044;-71
2022/07/06 04:24:58;;;;;;;18.42;13.55;;;;;;;24.10;57.50;99332.03;5076330;28;20053;-71
2022/07/06 04:27:25;;;;;;;21.00;13.05;;;;;;;24.26;57.02;99334.22;5079050;28;20135;-70
2022/07/06 04:29:58;;;;;;;23.15;13.68;;;;;;;24.35;56.56;99332.47;5096442;28;20052;-71
2022/07/06 04:32:25;;;;;;;75.35;41.08;;;;;;;24.46;56.06;99335.97;5096382;28;20495;-71
2022/07/06 04:34:52;;;;;;;19.33;13.10;;;;;;;24.63;56.12;99334.84;5096379;28;20047;-71
2022/07/06 04:37:19;;;;;;;22.58;14.32;;;;;;;24.78;55.46;99326.94;5096470;28;20048;-71
2022/07/06 04:39:46;;;;;;;17.10;12.65;;;;;;;24.93;54.90;99336.81;5095721;28;20079;-71
2022/07/06 04:42:13;;;;;;;18.13;12.70;;;;;;;25.07;54.30;99328.00;5095997;28;20067;-70
2022/07/06 04:44:40;;;;;;;16.63;12.57;;;;;;;25.22;54.29;99328.56;5096121;28;20048;-70
2022/07/06 04:47:07;;;;;;;20.60;12.77;;;;;;;25.36;53.41;99322.59;5096184;28;20055;-70
2022/07/06 04:49:34;;;;;;;23.50;12.15;;;;;;;25.46;53.27;99322.38;5095972;28;20043;-70
2022/07/06 04:52:01;;;;;;;24.05;12.57;;;;;;;25.53;52.91;99316.56;5077586;28;20050;-71
2022/07/06 04:54:28;;;;;;;38.63;12.18;;;;;;;25.55;53.04;99314.06;5095649;28;20465;-71
2022/07/06 04:56:55;;;;;;;22.35;12.73;;;;;;;25.69;52.63;99324.38;5095826;28;20055;-71
2022/07/06 04:59:22;;;;;;;18.30;12.13;;;;;;;25.83;51.89;99321.19;5095883;28;20403;-72
2022/07/06 05:01:49;;;;;;;18.60;11.90;;;;;;;26.11;51.63;99318.53;5077422;28;20052;-70
2022/07/06 05:04:19;;;;;;;19.83;10.98;;;;;;;26.30;51.17;99329.13;5095323;28;20052;-70
2022/07/06 05:06:46;;;;;;;;;;;;;;;26.25;51.38;99318.22;5091565;28;20054;-70
2022/07/06 05:09:13;;;;;;;23.80;12.25;;;;;;;26.36;50.71;99313.06;5075040;28;19931;-71
2022/07/06 05:11:40;;;;;;;21.00;11.55;;;;;;;26.62;49.95;99319.78;5074898;28;20060;-70
2022/07/06 05:14:07;;;;;;;21.90;11.82;;;;;;;26.76;49.63;99314.53;5074872;28;20056;-71
2022/07/06 05:16:34;;;;;;;16.02;10.98;;;;;;;26.86;49.27;99306.13;5077030;28;20056;-73
2022/07/06 05:19:01;;;;;;;19.88;10.82;;;;;;;26.97;48.98;99300.97;5095065;28;20140;-71
2022/07/06 05:21:28;;;;;;;13.70;10.98;;;;;;;27.14;48.49;99306.19;5094511;28;20142;-71
2022/07/06 05:23:56;;;;;;;17.75;10.70;;;;;;;27.30;47.95;99302.50;5095392;28;20082;-70
2022/07/06 05:26:22;;;;;;;17.98;9.98;;;;;;;27.44;47.33;99302.91;5095212;28;20055;-71
2022/07/06 05:28:49;;;;;;;22.00;10.90;;;;;;;27.59;47.01;99303.31;5095180;28;20056;-72
2022/07/06 05:31:16;;;;;;;15.60;11.10;;;;;;;27.76;46.53;99297.06;5095192;28;20051;-70
2022/07/06 05:33:43;;;;;;;21.63;10.70;;;;;;;27.97;45.59;99307.06;5094920;28;20071;-71
2022/07/06 05:36:10;;;;;;;21.67;10.77;;;;;;;28.16;45.13;99303.22;5094984;28;20502;-70
2022/07/06 05:38:37;;;;;;;16.85;9.57;;;;;;;28.38;44.72;99304.13;5094793;28;20048;-70
2022/07/06 05:41:04;;;;;;;18.38;10.63;;;;;;;28.53;43.84;99298.78;5095329;28;20459;-70
2022/07/06 05:43:31;;;;;;;14.02;9.27;;;;;;;28.69;43.83;99298.63;5094650;28;20055;-71
2022/07/06 05:45:58;;;;;;;44.95;21.75;;;;;;;28.93;42.85;99305.56;5094874;28;20071;-70
2022/07/06 05:51:11;;;;;;;15.52;8.50;;;;;;;29.40;41.95;99306.38;5094622;28;20097;-71
2022/07/06 05:53:37;;;;;;;14.13;9.30;;;;;;;29.56;41.56;99301.25;5094521;28;20075;-70
2022/07/06 05:56:04;;;;;;;14.77;9.07;;;;;;;29.74;41.15;99309.19;5094541;28;20048;-71
2022/07/06 05:58:31;;;;;;;14.93;8.63;;;;;;;29.87;41.01;99301.31;5093627;28;20135;-71
2022/07/06 06:00:58;;;;;;;14.80;8.75;;;;;;;29.98;41.05;99301.69;5093599;28;20055;-72
2022/07/06 06:03:25;;;;;;;11.70;7.18;;;;;;;29.95;39.96;99303.44;5094314;28;20131;-70
2022/07/06 06:05:53;;;;;;;13.50;7.72;;;;;;;29.92;39.50;99301.50;5094163;28;20055;-71
2022/07/06 06:08:20;;;;;;;10.85;6.90;;;;;;;30.14;38.96;99301.47;5094338;28;20044;-70
2022/07/06 06:10:47;;;;;;;10.90;7.20;;;;;;;30.69;38.39;99296.75;5076007;28;20076;-71
2022/07/06 06:13:15;;;;;;;11.43;7.65;;;;;;;31.35;37.28;99296.75;5093941;28;20078;-70
2022/07/06 06:15:42;;;;;;;9.57;7.38;;;;;;;32.73;34.89;99297.56;5094198;28;20411;-72
2022/07/06 06:18:09;;;;;;;12.68;7.20;;;;;;;35.37;30.43;99289.34;5094054;28;20048;-72
2022/07/06 06:20:36;;;;;;;10.27;6.78;;;;;;;36.65;28.36;99301.72;5093803;28;20454;-70
2022/07/06 06:23:04;;;;;;;12.00;7.40;;;;;;;35.80;29.07;99294.06;5094334;28;20100;-70
2022/07/06 06:25:33;;;;;;;9.93;7.27;;;;;;;34.61;30.97;99295.59;5076245;28;20059;-70
2022/07/06 06:28:05;;;;;;;11.57;7.25;;;;;;;33.93;31.84;99297.81;5086050;28;20511;-70
2022/07/06 06:30:32;;;;;;;16.98;8.68;;;;;;;33.87;31.41;99293.19;5074309;28;20052;-70
2022/07/06 06:33:19;;;;;;;12.80;8.23;;;;;;;33.09;32.30;99290.78;5073632;28;20048;-69
2022/07/06 06:35:51;;;;;;;14.02;8.38;;;;;;;32.17;34.04;99283.06;5073824;28;20048;-69
2022/07/06 06:38:20;;;;;;;11.80;8.40;;;;;;;31.68;35.17;99291.16;5059354;28;20591;-70
2022/07/06 06:40:49;;;;;;;12.48;8.07;;;;;;;31.31;35.43;99289.56;5094326;28;20064;-70
2022/07/06 06:43:16;;;;;;;9.52;7.68;;;;;;;31.25;35.91;99294.34;5093351;28;20089;-70
2022/07/06 06:45:44;;;;;;;10.82;8.18;;;;;;;31.48;35.42;99288.78;5093555;28;20105;-70
2022/07/06 06:48:11;;;;;;;10.73;8.07;;;;;;;31.86;34.82;99287.47;5075334;28;20072;-70
2022/07/06 06:50:49;;;;;;;17.95;9.30;;;;;;;32.14;34.24;99284.03;5075992;28;20562;-70
2022/07/06 06:53:16;;;;;;;11.65;8.70;;;;;;;32.24;33.89;99288.50;5093320;28;20101;-70
2022/07/06 06:55:43;;;;;;;12.27;8.75;;;;;;;33.62;31.98;99293.78;5093366;28;20075;-70
2022/07/06 06:58:10;;;;;;;16.13;8.20;;;;;;;36.10;28.56;99283.06;5092858;28;20071;-70
2022/07/06 07:00:37;;;;;;;12.68;7.60;;;;;;;39.79;23.82;99288.94;5093020;28;20556;-71
2022/07/06 07:03:04;;;;;;;13.45;8.25;;;;;;;42.77;20.08;99294.31;5093140;28;20072;-71
2022/07/06 07:05:33;;;;;;;16.08;7.85;;;;;;;45.00;18.27;99290.34;5093379;28;20411;-70
2022/07/06 07:08:00;;;;;;;14.00;7.82;;;;;;;46.98;16.25;99295.09;5093186;28;20135;-70
2022/07/06 07:10:31;;;;;;;9.57;7.43;;;;;;;47.83;14.30;99295.13;5093227;28;20048;-71
2022/07/06 07:12:58;;;;;;;11.35;8.18;;;;;;;48.77;13.79;99292.03;5092795;28;20060;-70
2022/07/06 07:15:26;;;;;;;10.10;7.00;;;;;;;49.28;13.57;99292.16;5092723;28;20079;-71
2022/07/06 07:17:53;;;;;;;8.48;6.18;;;;;;;49.60;13.29;99293.41;5092845;28;20078;-71
2022/07/06 07:20:20;;;;;;;9.93;6.07;;;;;;;49.97;12.01;99286.25;5093299;28;20160;-71
2022/07/06 07:22:47;;;;;;;10.88;6.55;;;;;;;49.85;12.67;99297.06;5093178;28;20457;-70
2022/07/06 07:25:14;;;;;;;12.68;6.70;;;;;;;50.39;11.98;99292.81;5092833;28;20418;-70
2022/07/06 07:27:41;;;;;;;9.35;6.43;;;;;;;50.22;12.14;99289.88;5092887;28;20075;-71
2022/07/06 07:30:09;;;;;;;21.67;9.98;;;;;;;48.63;12.78;99289.97;5092627;28;20075;-71
2022/07/06 07:32:36;;;;;;;8.00;6.38;;;;;;;48.00;13.50;99289.34;5092745;28;20046;-69
2022/07/06 07:35:03;;;;;;;7.07;5.97;;;;;;;48.42;13.62;99290.28;5092762;28;20055;-71
2022/07/06 07:37:30;;;;;;;9.32;6.18;;;;;;;47.34;13.95;99286.00;5092504;28;20052;-71
2022/07/06 07:39:58;;;;;;;9.00;6.13;;;;;;;48.50;13.11;99284.31;5092723;28;20587;-70
2022/07/06 07:42:25;;;;;;;8.65;6.63;;;;;;;50.05;11.70;99296.63;5092527;28;20052;-70
2022/07/06 07:44:52;;;;;;;8.02;6.40;;;;;;;49.77;12.05;99284.53;5092364;28;20409;-71
2022/07/06 07:47:19;;;;;;;12.02;6.68;;;;;;;49.59;12.38;99283.75;5092604;28;20396;-70
2022/07/06 07:49:46;;;;;;;8.50;6.78;;;;;;;51.18;11.46;99285.97;5092699;28;20040;-70
2022/07/06 07:52:13;;;;;;;14.48;8.43;;;;;;;52.85;10.68;99292.91;5092674;28;20101;-71
2022/07/06 07:54:40;;;;;;;7.20;6.50;;;;;;;52.70;10.73;99290.31;5092896;28;20151;-70
2022/07/06 07:57:14;;;;;;;15.38;6.90;;;;;;;52.97;10.54;99287.84;5092940;28;20113;-70
2022/07/06 07:59:42;;;;;;;;;;;;;;;52.98;10.28;99286.44;5075211;28;20070;-71
2022/07/06 08:02:09;;;;;;;9.95;7.15;;;;;;;51.81;10.88;99283.56;5092859;28;20030;-70
2022/07/06 08:04:36;;;;;;;12.68;6.32;;;;;;;53.05;9.93;99283.25;5092685;28;20491;-71
2022/07/06 08:07:03;;;;;;;19.95;7.30;;;;;;;54.40;9.38;99277.78;5092765;28;20499;-70
2022/07/06 08:09:30;;;;;;;11.73;7.43;;;;;;;54.43;8.87;99283.22;5092683;28;20040;-71
2022/07/06 08:11:58;;;;;;;;;;;;;;;52.84;10.21;99270.50;5092821;28;20044;-69
2022/07/06 08:14:25;;;;;;;8.65;6.80;;;;;;;53.37;9.56;99275.88;5092794;28;20362;-70
2022/07/06 08:16:52;;;;;;;8.15;6.72;;;;;;;54.60;8.99;99270.19;5092020;28;20130;-70
2022/07/06 08:19:20;;;;;;;14.45;6.70;;;;;;;55.74;8.89;99279.69;5092238;28;20075;-69
2022/07/06 08:21:47;;;;;;;11.85;7.32;;;;;;;56.69;7.80;99280.88;5092377;28;20143;-69
2022/07/06 08:24:14;;;;;;;8.60;7.18;;;;;;;56.44;7.99;99272.72;5074655;28;20075;-70
2022/07/06 08:26:43;;;;;;;10.57;7.47;;;;;;;56.89;7.90;99273.81;5074480;28;20054;-70
2022/07/06 08:29:10;;;;;;;10.60;7.72;;;;;;;57.04;7.73;99279.16;5092378;28;20590;-70
2022/07/06 08:31:37;;;;;;;12.55;7.03;;;;;;;57.11;7.38;99283.25;5092292;28;20044;-71
2022/07/06 08:34:23;;;;;;;11.18;8.10;;;;;;;57.77;7.58;99277.09;5092421;28;20114;-70
2022/07/06 08:36:55;;;;;;;9.88;7.63;;;;;;;57.77;7.26;99268.13;5092590;28;20055;-70
2022/07/06 08:39:22;;;;;;;10.32;7.80;;;;;;;57.68;7.47;99266.91;5092430;28;20048;-70
2022/07/06 08:41:51;;;;;;;10.82;7.93;;;;;;;58.42;6.49;99270.75;5092544;28;20048;-70
2022/07/06 08:44:18;;;;;;;8.38;6.82;;;;;;;58.55;6.44;99266.91;5092192;28;20139;-71
2022/07/06 08:46:48;;;;;;;8.40;7.53;;;;;;;58.02;6.50;99256.72;5092295;28;20075;-70
2022/07/06 08:49:18;;;;;;;9.90;7.90;;;;;;;58.13;7.18;99258.81;5092153;28;20416;-74
2022/07/06 08:51:45;;;;;;;10.15;7.53;;;;;;;55.54;8.02;99244.16;5092322;28;20513;-71
2022/07/06 08:54:12;;;;;;;15.38;9.15;;;;;;;50.36;11.61;99234.81;5091753;28;20051;-71
2022/07/06 08:56:40;;;;;;;10.05;8.88;;;;;;;48.81;12.86;99232.50;5087276;28;20052;-71
2022/07/06 08:59:15;;;;;;;15.50;8.52;;;;;;;48.67;13.63;99231.25;5075232;28;20140;-70
2022/07/06 09:01:44;;;;;;;10.10;8.43;;;;;;;50.51;12.27;99225.66;5074775;28;20080;-70
2022/07/06 09:04:13;;;;;;;12.07;8.65;;;;;;;49.11;12.97;99224.16;5075239;28;20075;-70
2022/07/06 09:06:42;;;;;;;10.52;9.18;;;;;;;48.21;13.63;99230.78;5083002;28;20412;-70
2022/07/06 09:09:10;;;;;;;10.27;8.38;;;;;;;50.36;11.98;99222.97;5095966;28;20446;-70
2022/07/06 09:11:37;;;;;;;15.50;8.38;;;;;;;52.71;10.61;99224.28;5095191;28;20117;-71
2022/07/06 09:14:07;;;;;;;9.38;8.30;;;;;;;53.42;9.71;99224.16;5094990;28;20060;-71
2022/07/06 09:16:35;;;;;;;12.43;8.55;;;;;;;52.98;9.80;99232.91;5095484;28;20056;-71
2022/07/06 09:19:07;;;;;;;10.20;8.85;;;;;;;50.39;11.75;99221.72;5095277;28;20040;-70
2022/07/06 09:21:39;;;;;;;9.82;8.80;;;;;;;51.25;11.55;99231.66;5095558;28;20052;-70
2022/07/06 09:24:10;;;;;;;10.00;8.80;;;;;;;51.16;11.79;99222.75;5095121;28;20138;-70
2022/07/06 09:26:37;;;;;;;16.40;9.68;;;;;;;50.87;12.19;99225.66;5095130;28;20476;-70
2022/07/06 09:29:05;;;;;;;12.65;9.50;;;;;;;49.39;12.43;99220.69;5094806;28;20040;-70
2022/07/06 09:31:33;;;;;;;10.63;8.63;;;;;;;44.53;16.99;99219.25;5077158;28;20086;-71
2022/07/06 09:34:10;;;;;;;13.40;8.68;;;;;;;47.41;14.51;99221.13;5095026;28;20060;-70
2022/07/06 09:36:42;;;;;;;12.95;9.35;;;;;;;46.57;14.92;99206.31;5095101;28;20101;-71
2022/07/06 09:39:19;;;;;;;13.90;8.85;;;;;;;44.68;16.62;99204.72;5094894;28;20507;-72
2022/07/06 09:41:47;;;;;;;;;;;;;;;43.22;18.20;99202.09;5095444;28;20048;-72
2022/07/06 09:44:29;;;;;;;11.43;9.13;;;;;;;41.59;19.64;99214.03;5095383;28;19924;-71
2022/07/06 09:46:58;;;;;;;16.02;10.10;;;;;;;40.81;20.86;99204.63;5094871;28;20048;-71
2022/07/06 09:49:26;;;;;;;15.98;9.63;;;;;;;40.07;21.80;99195.53;5095220;28;20044;-71
2022/07/06 09:51:56;;;;;;;11.52;9.38;;;;;;;39.20;22.69;99196.31;5094686;28;20392;-70
2022/07/06 09:54:23;;;;;;;13.95;8.90;;;;;;;38.50;23.25;99198.88;5094916;28;20056;-69
2022/07/06 09:56:51;;;;;;;12.17;9.53;;;;;;;37.87;23.98;99197.84;5094473;28;20058;-71
2022/07/06 09:59:21;;;;;;;14.15;9.52;;;;;;;37.52;24.34;99206.19;5094656;28;20048;-70
2022/07/06 10:01:52;;;;;;;14.02;10.40;;;;;;;37.07;25.48;99202.34;5076177;28;20048;-70
2022/07/06 10:04:20;;;;;;;14.05;10.45;;;;;;;36.49;25.79;99198.06;5094595;28;20048;-70
2022/07/06 10:06:48;;;;;;;14.13;9.07;;;;;;;35.86;26.62;99199.41;5085360;28;20404;-70
2022/07/06 10:09:17;;;;;;;12.63;9.88;;;;;;;35.56;27.54;99186.44;5073573;28;20041;-70
2022/07/06 10:11:49;;;;;;;19.60;10.38;;;;;;;35.55;27.71;99179.06;5055846;28;20053;-70
2022/07/06 10:14:28;;;;;;;17.17;10.38;;;;;;;35.49;27.87;99175.31;5073759;28;20525;-71
2022/07/06 10:16:59;;;;;;;14.88;11.38;;;;;;;35.17;28.25;99171.53;5074063;28;20411;-69
2022/07/06 10:19:29;;;;;;;17.52;10.32;;;;;;;34.72;29.63;99177.25;5074047;28;20044;-70
2022/07/06 10:21:59;;;;;;;15.43;11.63;;;;;;;34.56;29.42;99174.91;5073825;28;20054;-69
2022/07/06 10:24:27;;;;;;;21.40;10.20;;;;;;;34.51;29.64;99178.50;5073830;28;20055;-72
2022/07/06 10:26:55;;;;;;;16.33;9.80;;;;;;;34.49;29.79;99170.34;5073462;28;20511;-71
2022/07/06 10:29:24;;;;;;;14.98;9.63;;;;;;;34.50;29.97;99174.03;5072451;28;20044;-70
2022/07/06 10:31:52;;;;;;;;;;;;;;;34.10;29.90;99168.19;5074895;28;20559;-70
2022/07/06 10:34:19;;;;;;;10.80;9.10;;;;;;;33.78;30.20;99160.53;5073601;28;19928;-72
2022/07/06 10:36:52;;;;;;;20.40;11.07;;;;;;;33.62;30.73;99161.06;5073445;28;20135;-70
2022/07/06 10:42:57;;;;;;;13.85;9.70;;;;;;;33.12;31.49;99168.72;5089488;28;20138;-69
2022/07/06 10:45:26;;;;;;;13.18;9.73;;;;;;;33.22;31.15;99168.13;5093444;28;20044;-69
2022/07/06 10:48:12;;;;;;;14.25;9.65;;;;;;;33.62;30.58;99166.81;5093483;28;20418;-69
2022/07/06 10:50:40;;;;;;;18.35;9.43;;;;;;;33.96;30.49;99157.44;5093934;28;20138;-69
2022/07/06 10:53:14;;;;;;;12.93;8.98;;;;;;;34.10;30.42;99156.63;5093673;28;20054;-70
2022/07/06 10:55:47;;;;;;;11.48;8.90;;;;;;;33.93;30.04;99152.66;5093205;28;20052;-70
2022/07/06 10:58:14;;;;;;;14.10;7.95;;;;;;;33.74;30.14;99148.41;5093313;28;20047;-70
2022/07/06 11:00:49;;;;;;;10.13;7.33;;;;;;;33.49;29.60;99141.16;5093350;28;20058;-70
2022/07/06 11:03:44;;;;;;;9.82;7.93;;;;;;;33.22;29.53;99153.72;5075234;28;20043;-69
2022/07/06 11:06:18;;;;;;;13.48;7.88;;;;;;;33.20;29.77;99150.56;5081332;28;20051;-71
2022/07/06 11:09:09;;;;;;;12.63;7.47;;;;;;;33.12;29.83;99154.31;5093131;28;20549;-70
2022/07/06 11:11:36;;;;;;;12.52;7.80;;;;;;;33.17;29.64;99148.66;5058925;28;20051;-71
2022/07/06 11:14:10;;;;;;;11.85;8.02;;;;;;;33.23;29.57;99140.09;5092676;28;20064;-71
2022/07/06 11:16:39;;;;;;;8.98;6.82;;;;;;;33.10;29.84;99154.03;5093040;28;20081;-70
2022/07/06 11:19:14;;;;;;;9.05;7.00;;;;;;;33.27;29.36;99141.50;5074482;28;20048;-70
2022/07/06 11:22:04;;;;;;;10.45;7.05;;;;;;;33.37;29.09;99145.94;5093239;28;20069;-71
2022/07/06 11:24:33;;;;;;;13.55;7.57;;;;;;;33.07;29.59;99147.13;5092574;28;20048;-71
2022/07/06 11:27:01;;;;;;;10.75;6.63;;;;;;;32.95;29.89;99142.44;5090262;28;20136;-70
2022/07/06 11:29:29;;;;;;;13.10;7.60;;;;;;;33.02;29.29;99138.41;5092707;28;20544;-70
2022/07/06 11:32:00;;;;;;;11.40;6.95;;;;;;;33.17;29.49;99137.13;5092488;28;20117;-69
2022/07/06 11:34:31;;;;;;;15.43;6.82;;;;;;;33.35;29.14;99136.13;5081042;28;20461;-70
2022/07/06 11:37:00;;;;;;;10.32;7.13;;;;;;;33.36;29.02;99129.06;5061492;28;20068;-71
2022/07/06 11:39:31;;;;;;;15.85;7.60;;;;;;;33.15;29.50;99122.41;5092635;28;20048;-70